Paarl, South Africa
Current Conditions -  °F | °C
As of 10:00 AM on Monday 24 Nov 2014 (Local Time) from FACT Reporting Station
Few Clouds Few Clouds  
Wind Chill: 75°   Ceiling: Unl
Heat Index: 75°   Visibility: 6mi
Dew Point: 57°   Wind: 15mph
Humidity: 53%   Direction: 170°S
Pressure: 30.06"   Gusts: NA
Location:  33.7°S, 18.96°E
Report Text: FACT 240800Z 17013KT 140V200 9999 FEW020 24/14 Q1018 NOSIG
Loading
Personal Weather Stations






























Interactive Weather Map New forecast layout! Learn more

10-Day Weather Forecast

Advertisements
Track Severe Weather on mobile